createdAt,value
2019-01-26T00:01:40.799Z,0.20
2019-01-26T00:04:08.142Z,0.20
2019-01-26T00:06:35.868Z,0.20
2019-01-26T00:09:08.545Z,0.20
2019-01-26T00:11:36.298Z,0.20
2019-01-26T00:14:04.019Z,0.30
2019-01-26T00:16:31.886Z,0.30
2019-01-26T00:18:59.376Z,0.20
2019-01-26T00:21:27.489Z,0.30
2019-01-26T00:23:55.065Z,0.30
2019-01-26T00:26:22.645Z,0.30
2019-01-26T00:28:50.261Z,0.30
2019-01-26T00:31:18.161Z,0.30
2019-01-26T00:33:46.155Z,0.20
2019-01-26T00:36:14.456Z,0.30
2019-01-26T00:38:41.934Z,0.30
2019-01-26T00:41:09.546Z,0.30
2019-01-26T00:43:37.265Z,0.20
2019-01-26T00:46:05.036Z,0.30
2019-01-26T00:48:32.303Z,0.30
2019-01-26T00:50:59.666Z,0.30
2019-01-26T00:53:27.435Z,0.30
2019-01-26T00:55:55.502Z,0.40
2019-01-26T00:58:23.858Z,0.40
2019-01-26T01:00:52.126Z,0.40
2019-01-26T01:03:20.006Z,0.40
2019-01-26T01:05:47.265Z,0.30
2019-01-26T01:08:14.800Z,0.40
2019-01-26T01:10:42.097Z,0.30
2019-01-26T01:13:09.766Z,0.30
2019-01-26T01:15:37.014Z,0.40
2019-01-26T01:18:04.548Z,0.40
2019-01-26T01:20:32.486Z,0.40
2019-01-26T01:23:00.064Z,0.40
2019-01-26T01:25:28.095Z,0.40
2019-01-26T01:27:55.619Z,0.40
2019-01-26T01:30:23.473Z,0.40
2019-01-26T01:32:51.140Z,0.40
2019-01-26T01:35:18.939Z,0.40
2019-01-26T01:37:46.284Z,0.30
2019-01-26T01:40:14.221Z,0.40
2019-01-26T01:42:42.252Z,0.40
2019-01-26T01:45:14.026Z,0.40
2019-01-26T01:47:42.020Z,0.40
2019-01-26T01:50:10.280Z,0.40
2019-01-26T01:52:38.389Z,0.40
2019-01-26T01:55:07.374Z,0.50
2019-01-26T01:57:35.014Z,0.40
2019-01-26T02:00:04.732Z,0.40
2019-01-26T02:02:32.335Z,0.50
2019-01-26T02:04:59.462Z,0.40
2019-01-26T02:07:27.445Z,0.40
2019-01-26T02:09:54.940Z,0.40
2019-01-26T02:12:22.593Z,0.50
2019-01-26T02:14:50.179Z,0.50
2019-01-26T02:17:18.488Z,0.60
2019-01-26T02:19:45.750Z,0.60
2019-01-26T02:22:13.715Z,0.60
2019-01-26T02:24:41.222Z,0.70
2019-01-26T02:27:08.879Z,0.60
2019-01-26T02:29:35.974Z,0.60
2019-01-26T02:32:04.405Z,0.60
2019-01-26T02:34:32.138Z,0.70
2019-01-26T02:36:59.700Z,0.60
2019-01-26T02:39:27.499Z,0.70
2019-01-26T02:41:54.775Z,0.70
2019-01-26T02:44:22.195Z,0.70
2019-01-26T02:46:49.312Z,0.70
2019-01-26T02:49:16.485Z,0.70
2019-01-26T02:51:44.285Z,0.80
2019-01-26T02:54:11.684Z,0.80
2019-01-26T02:56:39.669Z,0.80
2019-01-26T02:59:07.275Z,0.90
2019-01-26T03:01:34.930Z,0.80
2019-01-26T03:04:02.773Z,0.90
2019-01-26T03:06:30.839Z,0.90
2019-01-26T03:08:58.370Z,0.90
2019-01-26T03:11:25.567Z,0.90
2019-01-26T03:13:53.392Z,1.00
2019-01-26T03:16:20.874Z,0.90
2019-01-26T03:18:48.282Z,0.90
2019-01-26T03:21:16.154Z,1.00
2019-01-26T03:23:43.745Z,1.00
2019-01-26T03:26:11.136Z,0.90
2019-01-26T03:28:38.958Z,1.00
2019-01-26T03:31:07.269Z,1.10
2019-01-26T03:33:35.031Z,1.10
2019-01-26T03:36:02.728Z,1.10
2019-01-26T03:38:30.582Z,1.10
2019-01-26T03:40:58.470Z,1.10
2019-01-26T03:43:25.910Z,1.10
2019-01-26T03:45:53.159Z,1.10
2019-01-26T03:48:20.979Z,1.10
2019-01-26T03:50:49.569Z,1.10
2019-01-26T03:53:17.188Z,1.10
2019-01-26T03:55:45.228Z,1.10
2019-01-26T03:58:13.049Z,1.10
2019-01-26T04:00:41.032Z,1.10
2019-01-26T04:03:08.267Z,1.20
2019-01-26T04:05:36.151Z,1.10
2019-01-26T04:08:03.681Z,1.10
2019-01-26T04:10:31.904Z,1.10
2019-01-26T04:12:59.186Z,1.10
2019-01-26T04:15:26.851Z,1.10
2019-01-26T04:17:54.513Z,1.10
2019-01-26T04:20:22.547Z,1.20
2019-01-26T04:22:50.450Z,1.20
2019-01-26T04:25:18.625Z,1.20
2019-01-26T04:27:45.858Z,1.20
2019-01-26T04:30:16.984Z,1.20
2019-01-26T04:32:44.729Z,1.20
2019-01-26T04:35:12.511Z,1.20
2019-01-26T04:37:40.459Z,1.30
2019-01-26T04:40:11.776Z,1.30
2019-01-26T04:42:39.630Z,1.30
2019-01-26T04:45:11.514Z,1.30
2019-01-26T04:47:39.188Z,1.20
2019-01-26T04:50:09.719Z,1.30
2019-01-26T04:52:37.212Z,1.30
2019-01-26T04:55:05.289Z,1.30
2019-01-26T04:57:33.145Z,1.30
2019-01-26T05:00:00.963Z,1.40
2019-01-26T05:02:28.331Z,1.40
2019-01-26T05:04:56.403Z,1.40
2019-01-26T05:07:23.952Z,1.40
2019-01-26T05:09:51.355Z,1.40
2019-01-26T05:12:18.705Z,1.40
2019-01-26T05:14:45.986Z,1.40
2019-01-26T05:17:13.897Z,1.40
2019-01-26T05:19:41.449Z,1.50
2019-01-26T05:22:08.897Z,1.40
2019-01-26T05:24:36.470Z,1.40
2019-01-26T05:27:04.207Z,1.50
2019-01-26T05:29:31.757Z,1.40
2019-01-26T05:31:59.055Z,1.50
2019-01-26T05:34:26.341Z,1.50
2019-01-26T05:36:54.293Z,1.50
2019-01-26T05:39:22.119Z,1.50
2019-01-26T05:41:49.769Z,1.50
2019-01-26T05:44:17.482Z,1.50
2019-01-26T05:46:45.170Z,1.50
2019-01-26T05:49:12.605Z,1.50
2019-01-26T05:51:40.155Z,1.50
2019-01-26T05:54:07.905Z,1.50
2019-01-26T05:56:35.497Z,1.50
2019-01-26T05:59:03.086Z,1.60
2019-01-26T06:01:30.803Z,1.50
2019-01-26T06:03:58.381Z,1.60
2019-01-26T06:06:26.390Z,1.50
2019-01-26T06:08:54.067Z,1.50
2019-01-26T06:11:22.035Z,1.40
2019-01-26T06:13:49.790Z,1.50
2019-01-26T06:16:17.413Z,1.50
2019-01-26T06:18:45.002Z,1.50
2019-01-26T06:21:12.284Z,1.50
2019-01-26T06:23:39.783Z,1.50
2019-01-26T06:26:07.614Z,1.60
2019-01-26T06:28:34.975Z,1.50
2019-01-26T06:31:02.378Z,1.60
2019-01-26T06:33:29.847Z,1.60
2019-01-26T06:35:57.571Z,1.60
2019-01-26T06:38:25.305Z,1.60
2019-01-26T06:40:52.811Z,1.60
2019-01-26T06:43:20.059Z,1.60
2019-01-26T06:45:47.710Z,1.60
2019-01-26T06:48:15.403Z,1.70
2019-01-26T06:50:42.626Z,1.60
2019-01-26T06:53:10.440Z,1.60
2019-01-26T06:55:38.556Z,1.60
2019-01-26T06:58:07.473Z,1.60
2019-01-26T07:00:34.851Z,1.60
2019-01-26T07:03:02.600Z,1.60
2019-01-26T07:05:46.252Z,1.60
2019-01-26T07:08:19.403Z,1.60
2019-01-26T07:10:46.817Z,1.60
2019-01-26T07:13:14.682Z,1.70
2019-01-26T07:15:43.061Z,1.70
2019-01-26T07:18:11.251Z,1.70
2019-01-26T07:20:38.854Z,1.70
2019-01-26T07:23:06.696Z,1.70
2019-01-26T07:25:34.116Z,1.70
2019-01-26T07:28:01.806Z,1.70
2019-01-26T07:30:29.217Z,1.70
2019-01-26T07:32:56.890Z,1.80
2019-01-26T07:35:24.285Z,1.70
2019-01-26T07:37:52.875Z,1.80
2019-01-26T07:40:20.365Z,1.80
2019-01-26T07:42:47.853Z,1.80
2019-01-26T07:45:16.418Z,1.80
2019-01-26T07:47:43.920Z,1.80
2019-01-26T07:50:15.511Z,1.90
2019-01-26T07:52:43.444Z,1.80
2019-01-26T07:55:12.336Z,1.90
2019-01-26T07:57:40.309Z,1.90
2019-01-26T08:00:13.324Z,1.90
2019-01-26T08:02:41.142Z,1.90
2019-01-26T08:05:10.498Z,1.90
2019-01-26T08:07:38.265Z,2.00
2019-01-26T08:10:10.840Z,2.00
2019-01-26T08:12:38.613Z,2.00
2019-01-26T08:15:08.898Z,2.10
2019-01-26T08:17:36.614Z,2.00
2019-01-26T08:20:07.794Z,2.10
2019-01-26T08:22:35.452Z,2.10
2019-01-26T08:25:04.007Z,2.10
2019-01-26T08:27:32.355Z,2.10
2019-01-26T08:30:00.265Z,2.20
2019-01-26T08:32:27.615Z,2.20
2019-01-26T08:34:55.458Z,2.20
2019-01-26T08:37:25.243Z,2.30
2019-01-26T08:39:53.025Z,2.30
2019-01-26T08:42:20.542Z,2.30
2019-01-26T08:44:47.950Z,2.40
2019-01-26T08:47:15.591Z,2.40
2019-01-26T08:49:43.109Z,2.50
2019-01-26T08:52:11.146Z,2.50
2019-01-26T08:54:38.789Z,2.50
2019-01-26T08:57:07.970Z,2.60
2019-01-26T08:59:35.649Z,2.70
2019-01-26T09:02:35.380Z,2.80
2019-01-26T09:05:06.910Z,2.80
2019-01-26T09:07:34.912Z,2.80
2019-01-26T09:10:02.614Z,2.80
2019-01-26T09:12:30.127Z,2.90
2019-01-26T09:14:58.324Z,2.80
2019-01-26T09:17:26.666Z,2.80
2019-01-26T09:19:54.173Z,2.90
2019-01-26T09:22:21.518Z,3.00
2019-01-26T09:24:48.708Z,2.90
2019-01-26T09:27:16.682Z,2.90
2019-01-26T09:29:44.078Z,3.00
2019-01-26T09:32:11.331Z,3.00
2019-01-26T09:34:38.772Z,2.90
2019-01-26T09:37:06.338Z,2.90
2019-01-26T09:39:34.300Z,2.80
2019-01-26T09:42:01.671Z,3.10
2019-01-26T09:44:29.377Z,3.10
2019-01-26T09:46:57.002Z,3.10
2019-01-26T09:49:24.405Z,3.20
2019-01-26T09:51:52.231Z,3.10
2019-01-26T09:54:19.526Z,3.00
2019-01-26T09:56:47.735Z,3.00
2019-01-26T09:59:15.466Z,3.30
2019-01-26T10:01:43.107Z,3.30
2019-01-26T10:04:10.996Z,3.40
2019-01-26T10:06:38.254Z,3.50
2019-01-26T10:09:10.608Z,3.60
2019-01-26T10:11:38.110Z,3.40
2019-01-26T10:14:05.581Z,3.70
2019-01-26T10:16:34.603Z,3.50
2019-01-26T10:19:02.727Z,3.60
2019-01-26T10:21:30.506Z,3.80
2019-01-26T10:23:58.094Z,3.80
2019-01-26T10:26:31.023Z,3.70
2019-01-26T10:29:00.493Z,3.70
2019-01-26T10:31:27.825Z,3.60
2019-01-26T10:33:55.478Z,3.70
2019-01-26T10:36:30.323Z,3.80
2019-01-26T10:39:00.455Z,3.80
2019-01-26T10:41:51.153Z,4.10
2019-01-26T10:44:24.847Z,3.70
2019-01-26T10:46:52.292Z,3.80
2019-01-26T10:49:19.869Z,3.70
2019-01-26T10:51:50.592Z,3.90
2019-01-26T10:54:17.772Z,4.10
2019-01-26T10:56:45.159Z,4.30
2019-01-26T10:59:12.558Z,4.10
2019-01-26T11:01:40.052Z,4.20
2019-01-26T11:04:07.650Z,4.20
2019-01-26T11:06:35.089Z,4.10
2019-01-26T11:09:05.780Z,4.30
2019-01-26T11:11:33.509Z,4.50
2019-01-26T11:14:01.170Z,4.30
2019-01-26T11:16:28.964Z,4.60
2019-01-26T11:18:56.106Z,4.70
2019-01-26T11:21:23.739Z,4.80
2019-01-26T11:23:51.396Z,4.90
2019-01-26T11:26:18.800Z,5.10
2019-01-26T11:28:46.176Z,5.00
2019-01-26T11:31:14.051Z,5.20
2019-01-26T11:33:42.004Z,5.50
2019-01-26T11:36:09.707Z,5.50
2019-01-26T11:38:37.342Z,5.50
2019-01-26T11:41:05.105Z,5.60
2019-01-26T11:43:32.893Z,5.50
2019-01-26T11:46:19.731Z,5.80
2019-01-26T11:48:50.092Z,5.80
2019-01-26T11:51:25.639Z,6.20
2019-01-26T11:53:53.035Z,6.50
2019-01-26T11:56:29.468Z,6.30
2019-01-26T11:58:56.849Z,6.40
2019-01-26T12:01:50.182Z,5.90
2019-01-26T12:04:22.558Z,6.40
2019-01-26T12:07:02.939Z,6.50
2019-01-26T12:09:30.231Z,6.50
2019-01-26T12:11:58.763Z,6.40
2019-01-26T12:14:26.387Z,6.60
2019-01-26T12:16:54.822Z,6.60
2019-01-26T12:19:23.055Z,6.60
2019-01-26T12:21:50.825Z,6.90
2019-01-26T12:24:18.626Z,7.00
2019-01-26T12:26:46.286Z,7.00
2019-01-26T12:29:13.833Z,7.20
2019-01-26T12:31:41.542Z,6.70
2019-01-26T12:34:09.224Z,6.70
2019-01-26T12:36:37.331Z,7.10
2019-01-26T12:39:09.732Z,7.20
2019-01-26T12:41:37.428Z,6.90
2019-01-26T12:44:05.109Z,7.20
2019-01-26T12:46:32.891Z,6.90
2019-01-26T12:49:00.423Z,7.20
2019-01-26T12:51:28.673Z,7.30
2019-01-26T12:53:56.864Z,7.00
2019-01-26T12:56:25.413Z,6.70
2019-01-26T12:58:54.592Z,7.00
2019-01-26T13:01:26.020Z,7.00
2019-01-26T13:03:53.699Z,7.10
2019-01-26T13:06:21.846Z,7.20
2019-01-26T13:08:49.754Z,7.30
2019-01-26T13:11:24.104Z,7.10
2019-01-26T13:13:52.027Z,7.30
2019-01-26T13:16:19.533Z,7.20
2019-01-26T13:18:46.942Z,6.80
2019-01-26T13:21:14.969Z,6.90
2019-01-26T13:23:42.679Z,6.70
2019-01-26T13:26:13.994Z,6.70
2019-01-26T13:28:41.939Z,6.60
2019-01-26T13:31:09.094Z,6.80
2019-01-26T13:33:36.822Z,6.70
2019-01-26T13:36:06.025Z,6.80
2019-01-26T13:38:34.618Z,6.70
2019-01-26T13:41:02.304Z,6.90
2019-01-26T13:43:29.827Z,6.40
2019-01-26T13:45:57.482Z,6.60
2019-01-26T13:48:25.156Z,6.60
2019-01-26T13:50:52.688Z,6.40
2019-01-26T13:53:20.744Z,6.40
2019-01-26T13:55:48.866Z,6.30
2019-01-26T13:58:17.052Z,6.10
2019-01-26T14:00:45.405Z,6.30
2019-01-26T14:03:13.370Z,6.10
2019-01-26T14:05:40.840Z,6.10
2019-01-26T14:08:08.389Z,6.10
2019-01-26T14:10:36.329Z,6.00
2019-01-26T14:13:04.396Z,5.90
2019-01-26T14:15:32.085Z,6.20
2019-01-26T14:17:59.363Z,5.90
2019-01-26T14:20:26.926Z,6.10
2019-01-26T14:22:54.875Z,5.80
2019-01-26T14:25:22.485Z,5.90
2019-01-26T14:27:50.025Z,5.80
2019-01-26T14:30:25.057Z,5.80
2019-01-26T14:32:56.671Z,5.60
2019-01-26T14:35:24.418Z,5.90
2019-01-26T14:37:52.214Z,5.80
2019-01-26T14:40:19.935Z,5.50
2019-01-26T14:42:53.934Z,5.60
2019-01-26T14:45:17.007Z,5.70
2019-01-26T14:47:44.774Z,5.80
2019-01-26T14:50:13.530Z,5.50
2019-01-26T14:52:41.465Z,5.10
2019-01-26T14:55:12.842Z,5.10
2019-01-26T14:57:40.993Z,5.10
2019-01-26T15:00:15.592Z,5.00
2019-01-26T15:02:43.707Z,5.20
2019-01-26T15:05:12.444Z,5.20
2019-01-26T15:07:40.066Z,4.90
2019-01-26T15:10:08.762Z,4.90
2019-01-26T15:12:39.813Z,5.00
2019-01-26T15:15:09.450Z,4.60
2019-01-26T15:17:38.703Z,4.60
2019-01-26T15:20:11.357Z,4.70
2019-01-26T15:22:39.176Z,4.80
2019-01-26T15:25:07.426Z,4.60
2019-01-26T15:27:34.975Z,4.40
2019-01-26T15:30:03.826Z,4.50
2019-01-26T15:32:31.189Z,4.50
2019-01-26T15:34:59.087Z,4.50
2019-01-26T15:37:26.474Z,4.50
2019-01-26T15:39:54.309Z,4.40
2019-01-26T15:42:22.159Z,4.40
2019-01-26T15:44:49.825Z,4.40
2019-01-26T15:47:17.108Z,4.50
2019-01-26T15:49:45.154Z,4.40
2019-01-26T15:52:12.822Z,4.50
2019-01-26T15:54:40.779Z,4.50
2019-01-26T15:57:08.536Z,4.50
2019-01-26T15:59:36.506Z,4.40
2019-01-26T16:02:04.616Z,4.30
2019-01-26T16:04:32.594Z,4.40
2019-01-26T16:07:00.388Z,4.40
2019-01-26T16:09:28.070Z,4.30
2019-01-26T16:11:55.241Z,4.30
2019-01-26T16:14:22.455Z,4.10
2019-01-26T16:16:50.092Z,4.20
2019-01-26T16:19:17.719Z,4.30
2019-01-26T16:21:44.864Z,4.10
2019-01-26T16:24:12.244Z,4.10
2019-01-26T16:26:39.499Z,4.10
2019-01-26T16:29:07.022Z,4.20
2019-01-26T16:31:36.271Z,4.10
2019-01-26T16:34:03.827Z,4.20
2019-01-26T16:36:31.299Z,4.10
2019-01-26T16:38:58.523Z,4.00
2019-01-26T16:41:25.910Z,4.10
2019-01-26T16:43:54.048Z,4.00
2019-01-26T16:46:21.580Z,4.10
2019-01-26T16:48:49.386Z,4.10
2019-01-26T16:51:16.657Z,3.90
2019-01-26T16:53:44.067Z,3.90
2019-01-26T16:56:11.444Z,3.90
2019-01-26T16:58:39.952Z,3.90
2019-01-26T17:01:07.278Z,3.90
2019-01-26T17:03:34.779Z,3.80
2019-01-26T17:06:03.570Z,3.90
2019-01-26T17:08:30.982Z,4.00
2019-01-26T17:10:58.716Z,3.90
2019-01-26T17:13:26.367Z,3.90
2019-01-26T17:15:54.195Z,3.90
2019-01-26T17:18:21.800Z,3.90
2019-01-26T17:20:49.021Z,3.90
2019-01-26T17:23:16.734Z,3.90
2019-01-26T17:25:44.622Z,4.00
2019-01-26T17:28:12.555Z,3.90
2019-01-26T17:30:42.849Z,3.90
2019-01-26T17:33:10.605Z,3.90
2019-01-26T17:35:38.550Z,3.90
2019-01-26T17:38:06.476Z,3.90
2019-01-26T17:40:34.519Z,3.90
2019-01-26T17:43:02.293Z,3.90
2019-01-26T17:45:30.560Z,3.90
2019-01-26T17:47:58.178Z,3.90
2019-01-26T17:50:25.793Z,3.90
2019-01-26T17:52:53.294Z,3.90
2019-01-26T17:55:21.279Z,3.90
2019-01-26T17:57:49.218Z,3.90
2019-01-26T18:00:25.409Z,3.90
2019-01-26T18:02:53.250Z,3.90
2019-01-26T18:05:21.041Z,3.90
2019-01-26T18:07:48.773Z,3.90
2019-01-26T18:10:17.879Z,3.90
2019-01-26T18:12:45.914Z,3.90
2019-01-26T18:15:14.019Z,3.90
2019-01-26T18:17:41.824Z,3.80
2019-01-26T18:20:14.914Z,3.90
2019-01-26T18:22:42.318Z,3.90
2019-01-26T18:25:10.135Z,3.90
2019-01-26T18:27:37.526Z,3.90
2019-01-26T18:30:06.589Z,3.90
2019-01-26T18:32:34.086Z,3.90
2019-01-26T18:35:09.006Z,3.90
2019-01-26T18:37:36.411Z,3.90
2019-01-26T18:40:07.365Z,4.00
2019-01-26T18:42:37.880Z,4.00
2019-01-26T18:45:12.367Z,4.00
2019-01-26T18:47:39.893Z,4.00
2019-01-26T18:50:11.970Z,4.00
2019-01-26T18:52:39.878Z,4.00
2019-01-26T18:55:07.309Z,4.00
2019-01-26T18:57:35.051Z,4.00
2019-01-26T19:00:04.888Z,4.00
2019-01-26T19:02:32.231Z,4.00
2019-01-26T19:05:05.833Z,4.00
2019-01-26T19:07:33.434Z,4.10
2019-01-26T19:10:00.966Z,4.10
2019-01-26T19:12:28.783Z,4.10
2019-01-26T19:14:56.356Z,4.10
2019-01-26T19:17:23.641Z,4.00
2019-01-26T19:19:51.352Z,4.10
2019-01-26T19:22:18.637Z,4.10
2019-01-26T19:24:46.242Z,4.10
2019-01-26T19:27:14.293Z,4.10
2019-01-26T19:29:42.317Z,4.10
2019-01-26T19:32:09.796Z,4.10
2019-01-26T19:34:37.367Z,4.10
2019-01-26T19:37:09.265Z,4.00
2019-01-26T19:39:34.501Z,4.10
2019-01-26T19:42:01.725Z,4.10
2019-01-26T19:44:29.190Z,4.10
2019-01-26T19:46:56.467Z,4.10
2019-01-26T19:49:24.370Z,4.10
2019-01-26T19:51:52.004Z,4.10
2019-01-26T19:54:19.628Z,4.10
2019-01-26T19:56:47.101Z,4.10
2019-01-26T19:59:15.161Z,4.10
2019-01-26T20:01:43.130Z,4.10
2019-01-26T20:04:10.608Z,4.10
2019-01-26T20:06:38.237Z,4.10
2019-01-26T20:09:09.437Z,4.10
2019-01-26T20:11:37.843Z,4.10
2019-01-26T20:14:05.370Z,4.10
2019-01-26T20:16:36.469Z,4.10
2019-01-26T20:19:02.450Z,4.10
2019-01-26T20:21:30.558Z,4.10
2019-01-26T20:23:58.509Z,4.20
2019-01-26T20:26:26.115Z,4.20
2019-01-26T20:28:53.822Z,4.20
2019-01-26T20:31:22.215Z,4.20
2019-01-26T20:33:50.083Z,4.20
2019-01-26T20:36:18.214Z,4.10
2019-01-26T20:38:45.933Z,4.10
2019-01-26T20:41:13.224Z,4.10
2019-01-26T20:43:41.265Z,4.20
2019-01-26T20:46:09.196Z,4.10
2019-01-26T20:48:36.789Z,4.10
2019-01-26T20:51:04.459Z,4.10
2019-01-26T20:53:31.930Z,4.10
2019-01-26T20:55:59.494Z,4.10
2019-01-26T20:58:27.446Z,4.10
2019-01-26T21:00:55.357Z,4.10
2019-01-26T21:03:23.428Z,4.10
2019-01-26T21:05:51.206Z,4.10
2019-01-26T21:08:18.658Z,4.10
2019-01-26T21:10:46.336Z,4.10
2019-01-26T21:13:17.031Z,4.10
2019-01-26T21:15:44.939Z,4.10
2019-01-26T21:18:12.610Z,4.10
2019-01-26T21:20:40.443Z,4.10
2019-01-26T21:23:08.105Z,4.10
2019-01-26T21:25:35.580Z,4.10
2019-01-26T21:28:04.052Z,4.10
2019-01-26T21:30:32.005Z,4.10
2019-01-26T21:32:59.498Z,4.10
2019-01-26T21:35:26.851Z,4.10
2019-01-26T21:37:54.635Z,4.10
2019-01-26T21:40:30.399Z,4.10
2019-01-26T21:42:59.384Z,4.20
2019-01-26T21:45:27.082Z,4.20
2019-01-26T21:47:54.873Z,4.10
2019-01-26T21:50:25.477Z,4.10
2019-01-26T21:52:53.147Z,4.10
2019-01-26T21:55:21.174Z,4.10
2019-01-26T21:57:49.307Z,4.10
2019-01-26T22:00:20.029Z,4.10
2019-01-26T22:02:47.988Z,4.20
2019-01-26T22:05:15.554Z,4.10
2019-01-26T22:07:42.940Z,4.10
2019-01-26T22:10:13.113Z,4.10
2019-01-26T22:12:41.353Z,4.10
2019-01-26T22:15:11.625Z,4.10
2019-01-26T22:17:39.248Z,4.10
2019-01-26T22:20:10.729Z,4.10
2019-01-26T22:22:38.304Z,4.10
2019-01-26T22:25:08.968Z,4.10
2019-01-26T22:27:36.649Z,4.10
2019-01-26T22:30:09.015Z,4.10
2019-01-26T22:32:36.877Z,4.10
2019-01-26T22:35:04.609Z,4.10
2019-01-26T22:37:32.461Z,4.10
2019-01-26T22:40:00.180Z,4.10
2019-01-26T22:42:27.497Z,4.10
2019-01-26T22:44:55.210Z,4.10
2019-01-26T22:47:22.825Z,4.10
2019-01-26T22:49:50.077Z,4.10
2019-01-26T22:52:17.691Z,4.10
2019-01-26T22:54:45.274Z,4.10
2019-01-26T22:57:12.557Z,4.10
2019-01-26T22:59:40.210Z,4.10
2019-01-26T23:02:08.345Z,4.10
2019-01-26T23:05:22.130Z,4.10
2019-01-26T23:07:55.210Z,4.10
2019-01-26T23:10:45.329Z,4.20
2019-01-26T23:13:58.499Z,4.10
2019-01-26T23:17:16.260Z,4.10
2019-01-26T23:20:01.265Z,4.20
2019-01-26T23:23:08.189Z,4.20
2019-01-26T23:26:18.738Z,4.20
2019-01-26T23:29:22.230Z,4.20
2019-01-26T23:31:49.496Z,4.20
2019-01-26T23:34:17.006Z,4.30
2019-01-26T23:36:44.710Z,4.20
2019-01-26T23:39:12.758Z,4.20
2019-01-26T23:41:40.164Z,4.30
2019-01-26T23:44:07.661Z,4.30
2019-01-26T23:46:35.499Z,4.20
2019-01-26T23:49:02.957Z,4.30
2019-01-26T23:51:30.535Z,4.20
2019-01-26T23:53:58.375Z,4.30
2019-01-26T23:56:25.546Z,4.30
2019-01-26T23:58:52.994Z,4.30
